Redan, GA (30074)

05:11 PM EST on decembrie 02, 2016 (GMT -0500)
Smoke Rise | | Change Station

Elev 971 ft 33.83 °N, 84.14 °W | Updated 60 seconds ago

Clear
Cer senin
55.9 °F
Feels Like 55.9 °F
N
0.0
Vânt variabil Vânt from NV

astăzi
High -- | Low -- °F
--% Chance of Precip.
Ieri
High -- | Low -- °F
Precip. -- inch
Presiunea 30.23 inch
Vizibilitatea 10.0 mile
Nori Cer senin
Punctul de rouă 31 °F
Umiditatea 39%
Precipitaţii 0.00 inch
Adâncimea zăpezii Not available.
7:24 AM 5:27 PM
Semilună în creştere, 10% visible
METAR KPDK 022153Z 30009KT 10SM CLR 14/M03 A3022 RMK AO2 SLP237 T01391028
Presiunea 30.23 inch
Vizibilitatea 10.0 mile
Nori Cer senin
Punctul de rouă 31 °F
Umiditatea 39%
Precipitaţii 0.00 inch
Adâncimea zăpezii Not available.
7:24 AM 5:27 PM
Semilună în creştere, 10% visible
METAR KPDK 022153Z 30009KT 10SM CLR 14/M03 A3022 RMK AO2 SLP237 T01391028

10-Day Weather Forecast

Almanac

Astronomie

Dec. 02, 2016 Răsărit Apus
Timpul Actual
Crepusculul Civil
Crepusculul nautic
Răsărit Astronomic
Luna
Durata zilei lumină
Lungimea zilei
Tomorrow will be .
, % of the Moon is Illuminated

Extremele de azi

State Highs State Lows

Community

WunderPhotos

Upload Photos

1,955,369 photos uploaded!

WunderBlog® & News

Nearby

Calitatea aerului

  Calitatea aerului Index de calitate a aerului Poluat
Not available.

Adâncimea zapezii

Station Depth Elevation

Earthquake Activity

Oraş Distance Mag. Time & Date
Minimum magnitude displayed is 2.5.

Coastal Water Temperatures

Locul Temperatura

Stations

Nearby Weather Stations

Locaţia staţiei Temp Vânt rece Punctul de rouă Umiditatea Vânt Precip. Elev Actualizare Type
                   

Watches & Warnings

There are currently no watches in effect.